Time;durP1;ratioP1;P1;durP2;ratioP2;P2;SDS_P1;SDS_P2;PMS_P1;PMS_P2;Temp;Humidity;BMP_temperature;BMP_pressure;BME280_temperature;BME280_humidity;BME280_pressure;Samples;Min_cycle;Max_cycle;Signal;HPM_P1;HPM_P2
2023/02/03 00:00:10;;;;;;;;;;;8.30;99.90;8.80;101333.00;;;;335107;28;83659;-91
2023/02/03 00:00:21;;;;;;;;;;;8.30;99.90;8.80;101330.00;;;;335779;28;95355;-91
2023/02/03 00:00:33;;;;;;;;;;;8.30;99.90;8.90;101328.00;;;;335376;29;82515;-91
2023/02/03 00:00:46;;;;;;;;;;;8.30;99.90;8.80;101328.00;;;;335771;28;96179;-92
2023/02/03 00:00:58;;;;;;;;;;;8.30;99.90;8.80;101335.00;;;;336478;28;82567;-91
2023/02/03 00:01:10;;;;;;;;;;;8.30;99.90;8.80;101328.00;;;;333284;29;94726;-91
2023/02/03 00:01:22;;;;;;;;;;;8.30;99.90;8.70;101330.00;;;;336658;28;83531;-91
2023/02/03 00:01:34;;;;;;;;;;;8.30;99.90;8.80;101325.00;;;;335914;28;92402;-91
2023/02/03 00:01:46;;;;;;;;;;;8.30;99.90;8.80;101329.00;;;;334012;29;82489;-91
2023/02/03 00:01:58;;;;;;;;;;;8.30;99.90;8.80;101328.00;;;;335684;28;93871;-90
2023/02/03 00:02:10;;;;;;;;;;;8.30;99.90;8.80;101324.00;;;;334010;29;83553;-91
2023/02/03 00:02:21;;;;;;;;;;;8.30;99.90;8.80;101329.00;;;;334414;29;96781;-91
2023/02/03 00:02:33;;;;;;;;;;;8.30;99.90;8.90;101327.00;;;;334043;29;83432;-92
2023/02/03 00:02:45;;;;;;;;;;;8.30;99.90;8.90;101324.00;;;;334404;29;94272;-91
2023/02/03 00:02:57;;;;;;;;;;;8.30;99.90;8.90;101324.00;;;;336568;28;83530;-91
2023/02/03 00:03:09;;;;;;;;;;;8.30;99.90;8.90;101323.00;;;;334700;29;93001;-91
2023/02/03 00:03:21;;;;;;;;;;;8.30;99.90;8.90;101318.00;;;;332631;29;82686;-91
2023/02/03 00:03:32;;;;;;;;;;;8.40;99.90;8.90;101319.00;;;;331975;29;95156;-91
2023/02/03 00:03:44;;;;;;;;;;;8.40;99.90;8.90;101325.00;;;;332988;29;83400;-91
2023/02/03 00:03:56;;;;;;;;;;;8.40;99.90;8.90;101317.00;;;;332074;29;94414;-90
2023/02/03 00:04:08;;;;;;;;;;;8.40;99.90;8.90;101322.00;;;;333980;29;83453;-91
2023/02/03 00:04:20;;;;;;;;;;;8.40;99.90;8.90;101316.00;;;;334815;29;93080;-91
2023/02/03 00:04:32;;;;;;;;;;;8.40;99.90;8.80;101318.00;;;;334067;29;83566;-92
2023/02/03 00:04:43;;;;;;;;;;;8.40;99.90;8.80;101316.00;;;;335689;28;95481;-91
2023/02/03 00:04:55;;;;;;;;;;;8.40;99.90;8.70;101309.00;;;;335398;29;83362;-91
2023/02/03 00:05:07;;;;;;;;;;;8.40;99.90;8.80;101321.00;;;;333213;28;96369;-92
2023/02/03 00:05:19;;;;;;;;;;;8.40;99.90;8.80;101316.00;;;;335497;29;82412;-91
2023/02/03 00:05:31;;;;;;;;;;;8.40;99.90;8.90;101316.00;;;;333210;29;97071;-90
2023/02/03 00:05:43;;;;;;;;;;;8.40;99.90;8.80;101319.00;;;;333857;29;82587;-91
2023/02/03 00:05:54;;;;;;;;;;;8.40;99.90;8.80;101315.00;;;;334681;29;91328;-91
2023/02/03 00:06:06;;;;;;;;;;;8.40;99.90;8.80;101319.00;;;;335024;29;83252;-91
2023/02/03 00:06:18;;;;;;;;;;;8.40;99.90;8.70;101316.00;;;;332118;29;93398;-91
2023/02/03 00:06:31;;;;;;;;;;;8.40;99.90;8.60;101322.00;;;;334979;29;84230;-92
2023/02/03 00:06:43;;;;;;;;;;;8.30;99.90;8.70;101320.00;;;;335648;28;96632;-91
2023/02/03 00:06:54;;;;;;;;;;;8.30;99.90;8.70;101330.00;;;;331367;29;83599;-91
2023/02/03 00:07:08;;;;;;;;;;;8.30;99.90;8.70;101323.00;;;;333487;29;94244;-91
2023/02/03 00:07:20;;;;;;;;;;;8.30;99.90;8.70;101322.00;;;;335428;29;82503;-91
2023/02/03 00:07:33;;;;;;;;;;;8.30;99.90;8.70;101326.00;;;;333216;29;96856;-92
2023/02/03 00:07:45;;;;;;;;;;;8.30;99.90;8.60;101328.00;;;;336636;28;82571;-91
2023/02/03 00:07:57;;;;;;;;;;;8.30;99.90;8.70;101320.00;;;;335904;28;94337;-90
2023/02/03 00:08:09;;;;;;;;;;;8.30;99.90;8.70;101324.00;;;;333920;29;82450;-91
2023/02/03 00:08:20;;;;;;;;;;;8.30;99.90;8.70;101314.00;;;;335958;28;92722;-92
2023/02/03 00:08:32;;;;;;;;;;;8.30;99.90;8.70;101323.00;;;;335282;28;83514;-91
2023/02/03 00:08:44;;;;;;;;;;;8.30;99.90;8.70;101315.00;;;;333130;29;94737;-92
2023/02/03 00:08:57;;;;;;;;;;;8.30;99.90;8.60;101324.00;;;;336548;28;83561;-92
2023/02/03 00:09:08;;;;;;;;;;;8.30;99.90;8.60;101318.00;;;;333122;29;96226;-91
2023/02/03 00:09:20;;;;;;;;;;;8.30;99.90;8.70;101323.00;;;;335375;28;82567;-91
2023/02/03 00:09:32;;;;;;;;;;;8.30;99.90;8.70;101324.00;;;;335881;28;95598;-91
2023/02/03 00:09:44;;;;;;;;;;;8.30;99.90;8.60;101322.00;;;;335360;29;82492;-91
2023/02/03 00:09:56;;;;;;;;;;;8.20;99.90;8.70;101318.00;;;;334409;29;97069;-91
2023/02/03 00:10:08;;;;;;;;;;;8.20;99.90;8.70;101320.00;;;;336444;28;83516;-92
2023/02/03 00:10:20;;;;;;;;;;;8.30;99.90;8.70;101321.00;;;;334575;29;94577;-91
2023/02/03 00:10:33;;;;;;;;;;;8.30;99.90;8.80;101312.00;;;;335480;29;82502;-92
2023/02/03 00:10:45;;;;;;;;;;;8.20;99.90;8.70;101321.00;;;;333167;28;95431;-91
2023/02/03 00:10:58;;;;;;;;;;;8.20;99.90;8.70;101319.00;;;;335432;29;82542;-92
2023/02/03 00:11:10;;;;;;;;;;;8.20;99.90;8.70;101327.00;;;;335908;28;94096;-91
2023/02/03 00:11:22;;;;;;;;;;;8.30;99.90;8.70;101324.00;;;;334057;29;82444;-92
2023/02/03 00:11:34;;;;;;;;;;;8.30;99.90;8.70;101332.00;;;;335590;28;97368;-91
2023/02/03 00:11:45;;;;;;;;;;;8.30;99.90;8.80;101319.00;;;;335320;29;82595;-91
2023/02/03 00:11:57;;;;;;;;;;;8.20;99.90;8.80;101320.00;;;;335865;28;94294;-91
2023/02/03 00:12:09;;;;;;;;;;;8.20;99.90;8.80;101319.00;;;;336275;28;83610;-91
2023/02/03 00:12:21;;;;;;;;;;;8.30;99.90;8.80;101319.00;;;;333134;29;93467;-91
2023/02/03 00:12:32;;;;;;;;;;;8.30;99.90;8.80;101322.00;;;;335421;29;83365;-92
2023/02/03 00:12:44;;;;;;;;;;;8.30;99.90;8.80;101323.00;;;;334484;28;93670;-92
2023/02/03 00:12:57;;;;;;;;;;;8.30;99.90;8.80;101322.00;;;;332575;29;83633;-91
2023/02/03 00:13:08;;;;;;;;;;;8.30;99.90;8.80;101318.00;;;;334411;29;95404;-91
2023/02/03 00:13:20;;;;;;;;;;;8.30;99.90;8.80;101327.00;;;;336580;28;83425;-91
2023/02/03 00:13:33;;;;;;;;;;;8.30;99.90;8.80;101325.00;;;;333227;29;95391;-91
2023/02/03 00:13:44;;;;;;;;;;;8.30;99.90;8.80;101318.00;;;;335179;29;83503;-91
2023/02/03 00:13:56;;;;;;;;;;;8.30;99.90;8.80;101316.00;;;;333255;29;94515;-90
2023/02/03 00:14:08;;;;;;;;;;;8.30;99.90;8.90;101316.00;;;;336645;28;83477;-90
2023/02/03 00:14:20;;;;;;;;;;;8.30;99.90;8.90;101321.00;;;;334484;28;96456;-92
2023/02/03 00:14:32;;;;;;;;;;;8.30;99.90;8.90;101324.00;;;;334110;29;83416;-92
2023/02/03 00:14:44;;;;;;;;;;;8.30;99.90;8.90;101321.00;;;;335599;28;94442;-91
2023/02/03 00:14:56;;;;;;;;;;;8.30;99.90;8.80;101323.00;;;;335319;29;82549;-92
2023/02/03 00:15:08;;;;;;;;;;;8.30;99.90;8.70;101317.00;;;;334599;29;94243;-91
2023/02/03 00:15:22;;;;;;;;;;;8.30;99.90;8.80;101316.00;;;;333766;29;83986;-91
2023/02/03 00:15:33;;;;;;;;;;;8.30;99.90;8.80;101314.00;;;;334321;29;96683;-92
2023/02/03 00:15:45;;;;;;;;;;;8.30;99.90;8.80;101319.00;;;;332727;29;82550;-92
2023/02/03 00:15:57;;;;;;;;;;;8.30;99.90;8.80;101310.00;;;;333313;29;94600;-91
2023/02/03 00:16:09;;;;;;;;;;;8.30;99.90;8.80;101320.00;;;;335144;29;83513;-91
2023/02/03 00:16:21;;;;;;;;;;;8.30;99.90;8.70;101317.00;;;;333143;29;95400;-92
2023/02/03 00:16:34;;;;;;;;;;;8.40;99.90;8.80;101324.00;;;;336468;28;82575;-92
2023/02/03 00:16:46;;;;;;;;;;;8.30;99.90;8.80;101307.00;;;;335894;28;93415;-91
2023/02/03 00:16:58;;;;;;;;;;;8.30;99.90;8.90;101323.00;;;;334082;29;83478;-91
2023/02/03 00:17:09;;;;;;;;;;;8.30;99.90;8.80;101318.00;;;;333249;29;94658;-91
2023/02/03 00:17:21;;;;;;;;;;;8.30;99.90;8.90;101320.00;;;;333877;29;84312;-91
2023/02/03 00:17:33;;;;;;;;;;;8.30;99.90;8.90;101316.00;;;;331785;29;98215;-92
2023/02/03 00:17:45;;;;;;;;;;;8.30;99.90;8.80;101321.00;;;;336578;28;82683;-92
2023/02/03 00:17:57;;;;;;;;;;;8.40;99.90;8.80;101322.00;;;;335940;28;93343;-90
2023/02/03 00:18:08;;;;;;;;;;;8.30;99.90;8.70;101318.00;;;;332575;28;83555;-91
2023/02/03 00:18:20;;;;;;;;;;;8.30;99.90;8.70;101325.00;;;;334568;29;93349;-92
2023/02/03 00:18:32;;;;;;;;;;;8.30;99.90;8.70;101321.00;;;;336693;28;82433;-91
2023/02/03 00:18:44;;;;;;;;;;;8.40;99.90;8.70;101319.00;;;;334456;29;92294;-91
2023/02/03 00:18:56;;;;;;;;;;;8.30;99.90;8.70;101308.00;;;;336355;28;83471;-91
2023/02/03 00:19:07;;;;;;;;;;;8.30;99.90;8.70;101320.00;;;;334440;28;96449;-92
2023/02/03 00:19:19;;;;;;;;;;;8.30;99.90;8.80;101326.00;;;;332719;29;83406;-91
2023/02/03 00:19:31;;;;;;;;;;;8.30;99.90;8.80;101324.00;;;;335664;28;96401;-91
2023/02/03 00:19:43;;;;;;;;;;;8.30;99.90;8.90;101318.00;;;;335452;29;83433;-91
2023/02/03 00:19:54;;;;;;;;;;;8.30;99.90;8.90;101321.00;;;;332111;29;93154;-91
2023/02/03 00:20:07;;;;;;;;;;;8.30;99.90;8.90;101320.00;;;;336929;28;83423;-91
2023/02/03 00:20:19;;;;;;;;;;;8.40;99.90;8.80;101316.00;;;;335865;28;95611;-91
2023/02/03 00:20:30;;;;;;;;;;;8.30;99.90;8.80;101313.00;;;;334263;28;83519;-92
2023/02/03 00:20:42;;;;;;;;;;;8.30;99.90;8.80;101315.00;;;;335817;28;96602;-91
2023/02/03 00:20:54;;;;;;;;;;;8.30;99.90;8.80;101314.00;;;;333030;29;83563;-91
2023/02/03 00:21:06;;;;;;;;;;;8.30;99.90;8.80;101318.00;;;;333433;29;93186;-92
2023/02/03 00:21:18;;;;;;;;;;;8.30;99.90;8.80;101324.00;;;;336547;28;83557;-91
2023/02/03 00:21:30;;;;;;;;;;;8.30;99.90;8.80;101320.00;;;;333277;28;97249;-91
2023/02/03 00:21:41;;;;;;;;;;;8.30;99.90;8.90;101320.00;;;;336824;28;83499;-92
2023/02/03 00:21:53;;;;;;;;;;;8.40;99.90;8.90;101310.00;;;;334790;29;94595;-91
2023/02/03 00:22:05;;;;;;;;;;;8.30;99.90;8.80;101318.00;;;;332881;29;83617;-91
2023/02/03 00:22:16;;;;;;;;;;;8.40;99.90;8.80;101318.00;;;;333510;29;93571;-91
2023/02/03 00:22:28;;;;;;;;;;;8.30;99.90;8.90;101321.00;;;;335682;29;83337;-91
2023/02/03 00:22:40;;;;;;;;;;;8.40;99.90;8.90;101316.00;;;;334549;29;94996;-91
2023/02/03 00:22:52;;;;;;;;;;;8.40;99.90;9.00;101325.00;;;;331685;29;82632;-91
2023/02/03 00:23:08;;;;;;;;;;;8.40;99.90;8.90;101329.00;;;;333328;29;95478;-91
2023/02/03 00:23:20;;;;;;;;;;;8.40;99.90;8.80;101322.00;;;;335503;29;83305;-91
2023/02/03 00:23:32;;;;;;;;;;;8.40;99.90;8.80;101317.00;;;;334470;29;94155;-91
2023/02/03 00:23:44;;;;;;;;;;;8.40;99.90;8.90;101313.00;;;;334141;29;83545;-91
2023/02/03 00:23:55;;;;;;;;;;;8.40;99.90;8.90;101318.00;;;;334715;29;95274;-91
2023/02/03 00:24:07;;;;;;;;;;;8.40;99.90;8.90;101322.00;;;;336646;28;82599;-91
2023/02/03 00:24:22;;;;;;;;;;;8.40;99.90;8.90;101314.00;;;;333431;29;94559;-91
2023/02/03 00:24:34;;;;;;;;;;;8.40;99.90;8.70;101316.00;;;;335579;29;83375;-92
2023/02/03 00:24:45;;;;;;;;;;;8.40;99.90;8.80;101324.00;;;;333283;29;96887;-91
2023/02/03 00:24:57;;;;;;;;;;;8.40;99.90;8.80;101320.00;;;;335600;29;83298;-91
2023/02/03 00:25:09;;;;;;;;;;;8.40;99.90;8.80;101313.00;;;;334513;29;94752;-92
2023/02/03 00:25:21;;;;;;;;;;;8.40;99.90;8.80;101317.00;;;;334335;29;84275;-91
2023/02/03 00:25:33;;;;;;;;;;;8.40;99.90;8.90;101323.00;;;;334690;29;95703;-90
2023/02/03 00:25:45;;;;;;;;;;;8.40;99.90;8.90;101316.00;;;;334236;29;83545;-91
2023/02/03 00:26:07;;;;;;;;;;;8.40;99.90;8.90;101322.00;;;;333526;29;96025;-91
2023/02/03 00:26:19;;;;;;;;;;;8.40;99.90;8.80;101316.00;;;;336735;28;82640;-91
2023/02/03 00:26:31;;;;;;;;;;;8.40;99.90;8.80;101324.00;;;;333564;29;94923;-91
2023/02/03 00:26:43;;;;;;;;;;;8.40;99.90;8.80;101324.00;;;;335278;29;83527;-91
2023/02/03 00:26:54;;;;;;;;;;;8.40;99.90;8.80;101316.00;;;;333491;29;94582;-91
2023/02/03 00:27:06;;;;;;;;;;;8.40;99.90;8.80;101318.00;;;;335270;29;82652;-91
2023/02/03 00:27:18;;;;;;;;;;;8.40;99.90;8.90;101320.00;;;;334694;29;94624;-91
2023/02/03 00:27:30;;;;;;;;;;;8.40;99.90;8.90;101317.00;;;;334271;29;83610;-92
2023/02/03 00:27:42;;;;;;;;;;;8.40;99.90;8.90;101320.00;;;;334651;28;97512;-92
2023/02/03 00:27:54;;;;;;;;;;;8.40;99.90;8.90;101317.00;;;;335416;29;82593;-91
2023/02/03 00:28:06;;;;;;;;;;;8.40;99.90;8.80;101319.00;;;;334649;28;95768;-90
2023/02/03 00:28:18;;;;;;;;;;;8.40;99.90;8.90;101323.00;;;;333084;29;83448;-91
2023/02/03 00:28:30;;;;;;;;;;;8.40;99.90;8.80;101318.00;;;;333304;29;96788;-91
2023/02/03 00:28:42;;;;;;;;;;;8.40;99.90;8.80;101315.00;;;;335431;29;83585;-91
2023/02/03 00:28:54;;;;;;;;;;;8.40;99.90;8.80;101316.00;;;;333337;29;96249;-92
2023/02/03 00:29:06;;;;;;;;;;;8.40;99.90;8.80;101324.00;;;;335580;29;82254;-90
2023/02/03 00:29:20;;;;;;;;;;;8.40;99.90;8.70;101328.00;;;;333251;29;95916;-92
2023/02/03 00:29:32;;;;;;;;;;;8.40;99.90;8.70;101329.00;;;;336749;28;83882;-92
2023/02/03 00:29:43;;;;;;;;;;;8.40;99.90;8.70;101326.00;;;;333477;29;94388;-92
2023/02/03 00:29:55;;;;;;;;;;;8.30;99.90;8.70;101318.00;;;;335419;29;83513;-91
2023/02/03 00:30:08;;;;;;;;;;;8.30;99.90;8.70;101315.00;;;;335859;28;93865;-91
2023/02/03 00:30:20;;;;;;;;;;;8.30;99.90;8.70;101319.00;;;;333061;29;83283;-91
2023/02/03 00:30:34;;;;;;;;;;;8.30;99.90;8.70;101322.00;;;;333573;29;94209;-90
2023/02/03 00:30:46;;;;;;;;;;;8.30;99.90;8.70;101326.00;;;;334266;29;83367;-91
2023/02/03 00:30:58;;;;;;;;;;;8.30;99.90;8.60;101320.00;;;;334875;29;93418;-91
2023/02/03 00:31:18;;;;;;;;;;;8.30;99.90;8.70;101321.00;;;;335427;28;83521;-91
2023/02/03 00:31:30;;;;;;;;;;;8.30;99.90;8.80;101323.00;;;;335900;28;96289;-90
2023/02/03 00:31:42;;;;;;;;;;;8.30;99.90;8.80;101313.00;;;;334130;29;83274;-91
2023/02/03 00:31:53;;;;;;;;;;;8.30;99.90;8.80;101320.00;;;;334698;29;95548;-91
2023/02/03 00:32:05;;;;;;;;;;;8.30;99.90;8.80;101312.00;;;;336745;28;83582;-91
2023/02/03 00:32:17;;;;;;;;;;;8.30;99.90;8.80;101322.00;;;;332169;29;96730;-90
2023/02/03 00:32:30;;;;;;;;;;;8.30;99.90;8.80;101316.00;;;;335483;28;83717;-92
2023/02/03 00:32:42;;;;;;;;;;;8.30;99.90;8.70;101323.00;;;;335876;28;97342;-91
2023/02/03 00:32:54;;;;;;;;;;;8.30;99.90;8.70;101316.00;;;;334302;29;82517;-92
2023/02/03 00:33:05;;;;;;;;;;;8.30;99.90;8.70;101311.00;;;;334847;29;93871;-91
2023/02/03 00:33:17;;;;;;;;;;;8.30;99.90;8.80;101313.00;;;;336808;28;83526;-91
2023/02/03 00:33:29;;;;;;;;;;;8.30;99.90;8.70;101315.00;;;;333495;29;93423;-91
2023/02/03 00:33:41;;;;;;;;;;;8.30;99.90;8.80;101319.00;;;;335424;29;83555;-91
2023/02/03 00:33:56;;;;;;;;;;;8.30;99.90;8.80;101310.00;;;;334506;29;95426;-91
2023/02/03 00:34:07;;;;;;;;;;;8.30;99.90;8.80;101321.00;;;;335549;29;83395;-91
2023/02/03 00:34:19;;;;;;;;;;;8.30;99.90;8.80;101315.00;;;;336260;28;93419;-92
2023/02/03 00:34:31;;;;;;;;;;;8.30;99.90;8.80;101317.00;;;;335338;29;82683;-91
2023/02/03 00:34:43;;;;;;;;;;;8.30;99.90;8.70;101328.00;;;;332089;29;95761;-91
2023/02/03 00:34:55;;;;;;;;;;;8.30;99.90;8.50;101318.00;;;;336878;28;83295;-91
2023/02/03 00:35:07;;;;;;;;;;;8.30;99.90;8.70;101320.00;;;;335544;28;93152;-91
2023/02/03 00:35:19;;;;;;;;;;;8.30;99.90;8.70;101313.00;;;;332966;29;83406;-91
2023/02/03 00:35:30;;;;;;;;;;;8.30;99.90;8.70;101317.00;;;;333452;29;94463;-91
2023/02/03 00:35:42;;;;;;;;;;;8.30;99.90;8.70;101322.00;;;;335672;29;83307;-91
2023/02/03 00:35:54;;;;;;;;;;;8.30;99.90;8.70;101318.00;;;;334601;29;97122;-92
2023/02/03 00:36:06;;;;;;;;;;;8.30;99.90;8.70;101315.00;;;;335212;29;83571;-91
2023/02/03 00:36:18;;;;;;;;;;;8.30;99.90;8.70;101319.00;;;;334767;29;92248;-91
2023/02/03 00:36:30;;;;;;;;;;;8.30;99.90;8.70;101314.00;;;;334185;29;83481;-92
2023/02/03 00:36:42;;;;;;;;;;;8.30;99.90;8.80;101315.00;;;;332197;29;93921;-91
2023/02/03 00:36:54;;;;;;;;;;;8.30;99.90;8.80;101318.00;;;;334098;29;83566;-91
2023/02/03 00:37:06;;;;;;;;;;;8.30;99.90;8.70;101308.00;;;;334920;29;93379;-91
2023/02/03 00:37:18;;;;;;;;;;;8.30;99.90;8.70;101317.00;;;;336879;28;83478;-91
2023/02/03 00:37:30;;;;;;;;;;;8.30;99.90;8.80;101318.00;;;;334583;28;95239;-91
2023/02/03 00:37:42;;;;;;;;;;;8.30;99.90;8.80;101317.00;;;;336770;28;82625;-91
2023/02/03 00:37:54;;;;;;;;;;;8.30;99.90;8.80;101313.00;;;;334776;29;95211;-92
2023/02/03 00:38:06;;;;;;;;;;;8.30;99.90;8.80;101322.00;;;;335489;29;82685;-91
2023/02/03 00:38:18;;;;;;;;;;;8.30;99.90;8.70;101318.00;;;;335856;28;94127;-92
2023/02/03 00:38:29;;;;;;;;;;;8.30;99.90;8.70;101318.00;;;;336404;28;82611;-91
2023/02/03 00:38:41;;;;;;;;;;;8.30;99.90;8.70;101310.00;;;;333342;28;96995;-92
2023/02/03 00:38:53;;;;;;;;;;;8.30;99.90;8.80;101312.00;;;;335352;29;82632;-91
2023/02/03 00:39:05;;;;;;;;;;;8.30;99.90;8.80;101312.00;;;;335956;28;96710;-92
2023/02/03 00:39:17;;;;;;;;;;;8.30;99.90;8.80;101311.00;;;;336852;28;83513;-91
2023/02/03 00:39:28;;;;;;;;;;;8.30;99.90;8.70;101310.00;;;;333444;29;97046;-91
2023/02/03 00:39:40;;;;;;;;;;;8.30;99.90;8.70;101312.00;;;;336794;28;83505;-92
2023/02/03 00:39:52;;;;;;;;;;;8.30;99.90;8.70;101310.00;;;;336049;28;93598;-92
2023/02/03 00:40:04;;;;;;;;;;;8.30;99.90;8.70;101316.00;;;;334104;29;83565;-91
2023/02/03 00:40:16;;;;;;;;;;;8.30;99.90;8.60;101316.00;;;;334762;29;93642;-91
2023/02/03 00:40:28;;;;;;;;;;;8.30;99.90;8.60;101311.00;;;;336973;28;82246;-91
2023/02/03 00:40:40;;;;;;;;;;;8.30;99.90;8.70;101310.00;;;;333443;29;93790;-92
2023/02/03 00:40:52;;;;;;;;;;;8.30;99.90;8.80;101308.00;;;;335313;29;83459;-91
2023/02/03 00:41:05;;;;;;;;;;;8.30;99.90;8.80;101309.00;;;;334712;29;94281;-92
2023/02/03 00:41:17;;;;;;;;;;;8.30;99.90;8.70;101315.00;;;;332970;29;82547;-90
2023/02/03 00:41:30;;;;;;;;;;;8.30;99.90;8.70;101306.00;;;;334584;29;96948;-91
2023/02/03 00:41:42;;;;;;;;;;;8.30;99.90;8.70;101304.00;;;;335588;29;82498;-91
2023/02/03 00:41:54;;;;;;;;;;;8.30;99.90;8.70;101307.00;;;;332273;29;94639;-92
2023/02/03 00:42:06;;;;;;;;;;;8.30;99.90;8.80;101306.00;;;;335514;29;83391;-92
2023/02/03 00:42:17;;;;;;;;;;;8.30;99.90;8.80;101310.00;;;;335929;28;96640;-91
2023/02/03 00:42:29;;;;;;;;;;;8.30;99.90;8.80;101304.00;;;;333036;29;82447;-92
2023/02/03 00:42:41;;;;;;;;;;;8.30;99.90;8.80;101307.00;;;;332108;29;96509;-91
2023/02/03 00:42:53;;;;;;;;;;;8.30;99.90;8.80;101299.00;;;;332944;29;83487;-91
2023/02/03 00:43:05;;;;;;;;;;;8.30;99.90;8.70;101311.00;;;;330971;29;93446;-91
2023/02/03 00:43:17;;;;;;;;;;;8.30;99.90;8.70;101308.00;;;;334302;29;82415;-90
2023/02/03 00:43:29;;;;;;;;;;;8.30;99.90;8.80;101303.00;;;;335872;28;93070;-91
2023/02/03 00:43:41;;;;;;;;;;;8.30;99.90;8.70;101310.00;;;;335443;28;82657;-90
2023/02/03 00:43:53;;;;;;;;;;;8.30;99.90;8.70;101302.00;;;;336062;28;95887;-91
2023/02/03 00:44:05;;;;;;;;;;;8.30;99.90;8.60;101307.00;;;;335281;28;83428;-91
2023/02/03 00:44:17;;;;;;;;;;;8.30;99.90;8.70;101309.00;;;;334657;29;94311;-91
2023/02/03 00:44:28;;;;;;;;;;;8.20;99.90;8.60;101302.00;;;;338227;28;83354;-90
2023/02/03 00:44:40;;;;;;;;;;;8.30;99.90;8.60;101302.00;;;;334769;29;93508;-91
2023/02/03 00:44:52;;;;;;;;;;;8.20;99.90;8.70;101311.00;;;;334308;29;83347;-91
2023/02/03 00:45:04;;;;;;;;;;;8.20;99.90;8.70;101308.00;;;;334668;29;96826;-91
2023/02/03 00:45:16;;;;;;;;;;;8.30;99.90;8.70;101306.00;;;;335459;29;82448;-90
2023/02/03 00:45:28;;;;;;;;;;;8.20;99.90;8.70;101304.00;;;;333419;28;96248;-91
2023/02/03 00:45:40;;;;;;;;;;;8.20;99.90;8.60;101310.00;;;;335235;29;82605;-91
2023/02/03 00:45:52;;;;;;;;;;;8.20;99.90;8.50;101305.00;;;;334383;29;96954;-91
2023/02/03 00:46:04;;;;;;;;;;;8.20;99.90;8.60;101308.00;;;;335424;29;83552;-91
2023/02/03 00:46:16;;;;;;;;;;;8.20;99.90;8.60;101305.00;;;;333356;28;95497;-90
2023/02/03 00:46:28;;;;;;;;;;;8.20;99.90;8.60;101308.00;;;;335416;28;83533;-91
2023/02/03 00:46:40;;;;;;;;;;;8.20;99.90;8.60;101306.00;;;;336129;28;93095;-91
2023/02/03 00:46:51;;;;;;;;;;;8.20;99.90;8.70;101307.00;;;;336732;28;82325;-91
2023/02/03 00:47:03;;;;;;;;;;;8.20;99.90;8.70;101302.00;;;;333420;29;95678;-91
2023/02/03 00:47:15;;;;;;;;;;;8.20;99.90;8.70;101306.00;;;;334261;29;83527;-90
2023/02/03 00:47:27;;;;;;;;;;;8.20;99.90;8.70;101310.00;;;;334735;29;94525;-91
2023/02/03 00:47:39;;;;;;;;;;;8.20;99.90;8.80;101307.00;;;;332913;29;83529;-91
2023/02/03 00:47:50;;;;;;;;;;;8.20;99.90;8.70;101306.00;;;;334730;29;95875;-91
2023/02/03 00:48:03;;;;;;;;;;;8.20;99.90;8.60;101305.00;;;;335358;29;83561;-91
2023/02/03 00:48:15;;;;;;;;;;;8.20;99.90;8.70;101306.00;;;;333622;29;93059;-90
2023/02/03 00:48:27;;;;;;;;;;;8.20;99.90;8.70;101309.00;;;;336673;28;82663;-91
2023/02/03 00:48:38;;;;;;;;;;;8.20;99.90;8.70;101309.00;;;;331958;29;95290;-91
2023/02/03 00:48:50;;;;;;;;;;;8.20;99.90;8.70;101300.00;;;;333018;29;82605;-91
2023/02/03 00:49:03;;;;;;;;;;;8.20;99.90;8.70;101305.00;;;;334707;29;94373;-91
2023/02/03 00:49:15;;;;;;;;;;;8.30;99.90;8.70;101306.00;;;;335286;29;83482;-90
2023/02/03 00:49:26;;;;;;;;;;;8.20;99.90;8.70;101306.00;;;;333447;29;96213;-90
2023/02/03 00:49:38;;;;;;;;;;;8.20;99.90;8.70;101302.00;;;;333880;29;82544;-90
2023/02/03 00:49:50;;;;;;;;;;;8.20;99.90;8.70;101310.00;;;;332067;29;97569;-91
2023/02/03 00:50:03;;;;;;;;;;;8.20;99.90;8.70;101304.00;;;;334350;29;83501;-91
2023/02/03 00:50:15;;;;;;;;;;;8.20;99.90;8.70;101305.00;;;;333515;29;94349;-91
2023/02/03 00:50:27;;;;;;;;;;;8.20;99.90;8.70;101304.00;;;;334186;29;82619;-91
2023/02/03 00:50:39;;;;;;;;;;;8.20;99.90;8.60;101305.00;;;;334837;29;92340;-90
2023/02/03 00:50:51;;;;;;;;;;;8.20;99.90;8.60;101310.00;;;;335465;29;83674;-91
2023/02/03 00:51:03;;;;;;;;;;;8.20;99.90;8.60;101310.00;;;;333555;29;94515;-91
2023/02/03 00:51:15;;;;;;;;;;;8.20;99.90;8.70;101308.00;;;;335708;29;83222;-90
2023/02/03 00:51:27;;;;;;;;;;;8.20;99.90;8.70;101305.00;;;;334811;29;93106;-91
2023/02/03 00:51:39;;;;;;;;;;;8.20;99.90;8.70;101309.00;;;;334045;29;83947;-91
2023/02/03 00:51:51;;;;;;;;;;;8.20;99.90;8.70;101299.00;;;;331617;29;94696;-91
2023/02/03 00:52:03;;;;;;;;;;;8.20;99.90;8.70;101315.00;;;;331722;29;83433;-91
2023/02/03 00:52:15;;;;;;;;;;;8.20;99.90;8.70;101306.00;;;;333428;29;95232;-91
2023/02/03 00:52:26;;;;;;;;;;;8.20;99.90;8.70;101315.00;;;;334299;29;83259;-91
2023/02/03 00:52:38;;;;;;;;;;;8.20;99.90;8.70;101305.00;;;;331070;29;95008;-90
2023/02/03 00:52:50;;;;;;;;;;;8.20;99.90;8.60;101306.00;;;;334314;29;83446;-91
2023/02/03 00:53:02;;;;;;;;;;;8.20;99.90;8.60;101311.00;;;;334920;29;93123;-91
2023/02/03 00:53:14;;;;;;;;;;;8.20;99.90;8.70;101314.00;;;;335468;29;83602;-91
2023/02/03 00:53:26;;;;;;;;;;;8.20;99.90;8.70;101310.00;;;;334775;29;92345;-91
2023/02/03 00:53:37;;;;;;;;;;;8.20;99.90;8.70;101314.00;;;;335440;29;82622;-91
2023/02/03 00:53:49;;;;;;;;;;;8.20;99.90;8.70;101307.00;;;;333276;29;96244;-91
2023/02/03 00:54:01;;;;;;;;;;;8.20;99.90;8.70;101312.00;;;;334288;29;83333;-91
2023/02/03 00:54:13;;;;;;;;;;;8.20;99.90;8.80;101308.00;;;;333307;29;97145;-91
2023/02/03 00:54:25;;;;;;;;;;;8.20;99.90;8.70;101313.00;;;;335628;29;83342;-91
2023/02/03 00:54:36;;;;;;;;;;;8.20;99.90;8.70;101312.00;;;;334794;29;94101;-90
2023/02/03 00:54:48;;;;;;;;;;;8.20;99.90;8.80;101305.00;;;;331416;29;83646;-91
2023/02/03 00:55:00;;;;;;;;;;;8.20;99.90;8.70;101303.00;;;;332013;29;96646;-90
2023/02/03 00:55:12;;;;;;;;;;;8.20;99.90;8.70;101311.00;;;;335149;29;84132;-91
2023/02/03 00:55:23;;;;;;;;;;;8.20;99.90;8.70;101319.00;;;;334699;29;93052;-90
2023/02/03 00:55:35;;;;;;;;;;;8.20;99.90;8.80;101309.00;;;;334331;29;83371;-91
2023/02/03 00:55:47;;;;;;;;;;;8.20;99.90;8.80;101306.00;;;;332020;29;95568;-90
2023/02/03 00:55:59;;;;;;;;;;;8.20;99.90;8.70;101307.00;;;;332820;29;83593;-90
2023/02/03 00:56:11;;;;;;;;;;;8.20;99.90;8.60;101316.00;;;;334821;29;93494;-91
2023/02/03 00:56:23;;;;;;;;;;;8.20;99.90;8.50;101313.00;;;;335324;29;82436;-91
2023/02/03 00:56:35;;;;;;;;;;;8.20;99.90;8.50;101309.00;;;;333549;29;92198;-91
2023/02/03 00:56:47;;;;;;;;;;;8.20;99.90;8.50;101314.00;;;;335485;29;83424;-90
2023/02/03 00:56:58;;;;;;;;;;;8.20;99.90;8.60;101312.00;;;;336183;28;94544;-91
2023/02/03 00:57:10;;;;;;;;;;;8.20;99.90;8.60;101315.00;;;;334332;29;83361;-91
2023/02/03 00:57:22;;;;;;;;;;;8.20;99.90;8.60;101316.00;;;;333402;29;95547;-90
2023/02/03 00:57:33;;;;;;;;;;;8.20;99.90;8.60;101315.00;;;;335537;29;83419;-91
2023/02/03 00:57:45;;;;;;;;;;;8.20;99.90;8.70;101309.00;;;;334537;29;95379;-91
2023/02/03 00:57:57;;;;;;;;;;;8.20;99.90;8.70;101308.00;;;;334075;29;83504;-91
2023/02/03 00:58:09;;;;;;;;;;;8.20;99.90;8.70;101310.00;;;;332182;29;93209;-91
2023/02/03 00:58:21;;;;;;;;;;;8.20;99.90;8.70;101310.00;;;;332798;29;83547;-91
2023/02/03 00:58:32;;;;;;;;;;;8.20;99.90;8.70;101305.00;;;;333495;29;92703;-91
2023/02/03 00:58:44;;;;;;;;;;;8.20;99.90;8.70;101306.00;;;;332842;29;83592;-91
2023/02/03 00:58:56;;;;;;;;;;;8.20;99.90;8.70;101310.00;;;;333332;29;95618;-91
2023/02/03 00:59:08;;;;;;;;;;;8.20;99.90;8.70;101308.00;;;;334170;29;83563;-90
2023/02/03 00:59:20;;;;;;;;;;;8.20;99.90;8.70;101308.00;;;;333472;29;94603;-92
2023/02/03 00:59:31;;;;;;;;;;;8.20;99.90;8.70;101302.00;;;;334015;29;82676;-91
2023/02/03 00:59:43;;;;;;;;;;;8.20;99.90;8.70;101311.00;;;;333518;29;93947;-90
2023/02/03 00:59:56;;;;;;;;;;;8.20;99.90;8.70;101313.00;;;;335432;29;83518;-91
2023/02/03 01:00:09;;;;;;;;;;;8.20;99.90;8.70;101308.00;;;;334771;29;94195;-91
2023/02/03 01:00:21;;;;;;;;;;;8.20;99.90;8.70;101306.00;;;;333051;29;83186;-91